Terminal Aerodrome Forecast
Issued by NWS

Home | Current Version | Previous Version | Text Only | Print | Product List | Glossary On
Versions: 1 2 3 4 5 6 7 8 9 10 11 12 13 14
000
FTUS45 KRIW 242300
TAFBPI
TAF
KBPI 242329Z 2500/2524 30014G22KT P6SM VCSH SCT024 BKN040
     FM250400 33012G22KT P6SM SCT030 BKN060
     FM250900 34011KT P6SM BKN060
     FM251700 33012G18KT P6SM SCT060=

USA.gov is the U.S. government's official web portal to all federal, state and local government web resources and services.